Weather at Sigonella Navy Air Base

Public forecast

Using degrees Celsius for public forecast. Weather courtesy of forecast.io.

Current aviation weather report (METAR) for Sigonella Navy Air Base

Retrieved 2020/11/25 09:55 UTC (16 minutes ago):

LICZ 250955Z /////KT 4000 BR FEW010 SCT020 BKN060 16/16 Q1023 RMK BKN VIS MIN 4000 WIND THR28 06005KT WIND THR10 09005KT A3022 GRN

Aviation forecast (TAF) for Sigonella Navy Air Base

Retrieved 2020/11/25 06:27 UTC (4 hours ago):

TAF LICZ 250500Z 2506/2606 VRB03KT 8000 RA SCT005 SCT030 TEMPO 2506/2510 4000 TSRA BKN010 FEW050CB TEMPO 2515/2519 6000 TSRA SCT010 SCT040CB